createdAt,value
2017-11-29T00:00:11.694Z,15.67
2017-11-29T00:02:40.524Z,13.47
2017-11-29T00:05:09.349Z,14.03
2017-11-29T00:07:38.173Z,14.97
2017-11-29T00:10:07.003Z,14.50
2017-11-29T00:12:35.822Z,14.37
2017-11-29T00:15:04.656Z,15.50
2017-11-29T00:17:33.472Z,17.03
2017-11-29T00:20:02.307Z,14.97
2017-11-29T00:22:31.139Z,14.93
2017-11-29T00:24:59.941Z,13.73
2017-11-29T00:27:28.770Z,11.70
2017-11-29T00:29:57.585Z,11.43
2017-11-29T00:32:26.395Z,11.73
2017-11-29T00:34:55.251Z,15.37
2017-11-29T00:37:24.096Z,13.00
2017-11-29T00:39:52.957Z,14.20
2017-11-29T00:42:21.780Z,12.80
2017-11-29T00:44:50.587Z,11.67
2017-11-29T00:47:19.423Z,14.03
2017-11-29T00:49:48.253Z,14.37
2017-11-29T00:52:17.079Z,15.53
2017-11-29T00:54:45.895Z,14.00
2017-11-29T00:57:14.723Z,14.83
2017-11-29T00:59:43.543Z,13.57
2017-11-29T01:02:12.352Z,13.20
2017-11-29T01:04:41.180Z,13.13
2017-11-29T01:07:10.036Z,10.80
2017-11-29T01:09:38.822Z,17.53
2017-11-29T01:12:07.653Z,14.53
2017-11-29T01:14:36.467Z,15.03
2017-11-29T01:17:05.276Z,13.80
2017-11-29T01:19:34.105Z,14.83
2017-11-29T01:22:02.987Z,16.17
2017-11-29T01:24:31.801Z,17.17
2017-11-29T01:27:00.628Z,16.23
2017-11-29T01:29:29.451Z,18.70
2017-11-29T01:31:58.286Z,15.87
2017-11-29T01:34:27.095Z,14.47
2017-11-29T01:36:56.816Z,15.13
2017-11-29T01:39:25.668Z,13.07
2017-11-29T01:41:54.505Z,11.30
2017-11-29T01:58:15.803Z,10.60
2017-11-29T02:00:48.571Z,10.23
2017-11-29T02:03:17.406Z,11.87
2017-11-29T02:05:46.235Z,13.07
2017-11-29T02:08:15.041Z,8.13
2017-11-29T02:10:43.869Z,10.80
2017-11-29T02:13:12.671Z,7.53
2017-11-29T02:15:41.525Z,9.53
2017-11-29T02:18:10.350Z,10.60
2017-11-29T02:20:39.179Z,8.43
2017-11-29T02:23:08.011Z,8.00
2017-11-29T02:25:36.829Z,7.47
2017-11-29T02:28:05.642Z,9.60
2017-11-29T02:30:34.453Z,8.23
2017-11-29T02:33:03.298Z,9.17
2017-11-29T02:35:32.181Z,8.60
2017-11-29T02:38:00.987Z,8.20
2017-11-29T02:40:35.654Z,7.53
2017-11-29T02:43:04.463Z,6.73
2017-11-29T02:45:33.307Z,6.80
2017-11-29T02:48:02.142Z,5.40
2017-11-29T02:50:30.963Z,7.67
2017-11-29T02:52:59.792Z,8.27
2017-11-29T02:55:28.625Z,5.67
2017-11-29T02:57:57.410Z,5.67
2017-11-29T03:00:26.241Z,6.10
2017-11-29T03:02:55.048Z,5.97
2017-11-29T03:05:23.881Z,6.13
2017-11-29T03:07:52.727Z,6.90
2017-11-29T03:10:21.546Z,7.70
2017-11-29T03:12:50.358Z,6.73
2017-11-29T03:15:19.194Z,6.30
2017-11-29T03:17:48.023Z,5.83
2017-11-29T03:20:16.853Z,4.40
2017-11-29T03:22:45.677Z,5.90
2017-11-29T03:25:14.537Z,4.97
2017-11-29T03:27:43.379Z,4.40
2017-11-29T03:30:12.230Z,5.57
2017-11-29T03:32:41.068Z,6.40
2017-11-29T03:35:09.902Z,9.37
2017-11-29T03:37:38.751Z,5.90
2017-11-29T03:40:07.588Z,6.50
2017-11-29T03:42:36.440Z,6.70
2017-11-29T03:45:05.306Z,7.23
2017-11-29T03:47:34.131Z,6.90
2017-11-29T03:50:02.969Z,6.33
2017-11-29T03:52:31.778Z,6.83
2017-11-29T03:55:00.616Z,8.07
2017-11-29T03:57:29.429Z,6.80
2017-11-29T03:59:58.256Z,6.73
2017-11-29T04:02:27.120Z,7.03
2017-11-29T04:04:55.938Z,5.67
2017-11-29T04:07:24.753Z,8.03
2017-11-29T04:09:53.586Z,7.33
2017-11-29T04:12:24.075Z,8.13
2017-11-29T04:14:52.950Z,6.50
2017-11-29T04:17:21.766Z,6.90
2017-11-29T04:19:50.572Z,7.30
2017-11-29T04:22:19.441Z,7.90
2017-11-29T04:24:48.292Z,7.93
2017-11-29T04:27:17.119Z,9.47
2017-11-29T04:29:45.946Z,8.83
2017-11-29T04:32:14.769Z,9.60
2017-11-29T04:34:43.611Z,9.93
2017-11-29T04:37:12.431Z,9.07
2017-11-29T04:39:41.253Z,8.40
2017-11-29T04:42:10.081Z,7.70
2017-11-29T04:44:38.934Z,7.33
2017-11-29T04:47:07.753Z,10.23
2017-11-29T04:49:36.569Z,11.13
2017-11-29T04:52:05.408Z,6.57
2017-11-29T04:54:34.209Z,8.00
2017-11-29T04:57:03.030Z,10.23
2017-11-29T04:59:31.888Z,6.87
2017-11-29T05:02:00.740Z,6.57
2017-11-29T05:04:29.562Z,7.07
2017-11-29T05:06:58.372Z,6.87
2017-11-29T05:09:27.219Z,10.63
2017-11-29T05:11:56.052Z,9.87
2017-11-29T05:14:24.903Z,11.80
2017-11-29T05:16:53.730Z,10.13
2017-11-29T05:19:22.554Z,12.37
2017-11-29T05:21:51.377Z,11.63
2017-11-29T05:24:20.190Z,9.67
2017-11-29T05:26:49.012Z,11.20
2017-11-29T05:29:17.879Z,12.37
2017-11-29T05:31:46.714Z,10.50
2017-11-29T05:34:15.538Z,12.03
2017-11-29T05:36:44.382Z,11.37
2017-11-29T05:39:13.208Z,10.30
2017-11-29T05:41:42.064Z,11.43
2017-11-29T05:44:10.894Z,12.63
2017-11-29T05:46:39.693Z,13.67
2017-11-29T05:49:08.556Z,10.37
2017-11-29T05:51:37.349Z,13.00
2017-11-29T05:54:06.198Z,15.37
2017-11-29T05:56:35.037Z,13.07
2017-11-29T05:59:03.837Z,16.50
2017-11-29T06:01:32.705Z,12.77
2017-11-29T06:04:01.603Z,13.93
2017-11-29T06:06:30.431Z,13.53
2017-11-29T06:08:59.261Z,12.53
2017-11-29T06:11:28.312Z,12.37
2017-11-29T06:13:57.142Z,12.80
2017-11-29T06:16:25.962Z,14.17
2017-11-29T06:18:54.875Z,16.00
2017-11-29T06:21:23.701Z,14.47
2017-11-29T06:23:52.556Z,13.97
2017-11-29T06:26:21.381Z,15.73
2017-11-29T06:28:50.216Z,17.10
2017-11-29T06:31:19.038Z,14.03
2017-11-29T06:33:47.863Z,15.60
2017-11-29T06:36:16.700Z,13.40
2017-11-29T06:38:45.533Z,17.37
2017-11-29T06:41:14.364Z,14.40
2017-11-29T06:43:45.710Z,13.33
2017-11-29T06:46:14.516Z,21.37
2017-11-29T06:48:43.355Z,17.83
2017-11-29T06:51:12.194Z,17.13
2017-11-29T06:53:40.994Z,15.27
2017-11-29T06:56:09.834Z,14.50
2017-11-29T06:58:38.656Z,15.90
2017-11-29T07:01:07.458Z,15.67
2017-11-29T07:03:36.276Z,14.90
2017-11-29T07:06:05.098Z,19.80
2017-11-29T07:08:33.929Z,19.10
2017-11-29T07:11:02.751Z,20.97
2017-11-29T07:13:31.567Z,15.40
2017-11-29T07:16:00.394Z,17.70
2017-11-29T07:18:29.201Z,16.87
2017-11-29T07:20:58.030Z,14.60
2017-11-29T07:23:26.879Z,14.53
2017-11-29T07:25:55.692Z,22.70
2017-11-29T07:28:24.513Z,21.33
2017-11-29T07:30:53.334Z,15.67
2017-11-29T07:33:22.155Z,14.20
2017-11-29T07:35:50.978Z,14.60
2017-11-29T07:38:19.924Z,14.20
2017-11-29T07:40:48.791Z,14.00
2017-11-29T07:43:17.611Z,13.43
2017-11-29T07:45:46.438Z,8.13
2017-11-29T07:48:17.437Z,11.23
2017-11-29T07:50:46.300Z,8.97
2017-11-29T07:53:15.131Z,10.53
2017-11-29T07:55:43.964Z,11.80
2017-11-29T07:58:12.799Z,15.07
2017-11-29T08:00:41.658Z,15.80
2017-11-29T08:03:11.744Z,13.87
2017-11-29T08:05:40.569Z,17.40
2017-11-29T08:08:09.440Z,13.70
2017-11-29T08:10:38.277Z,11.90
2017-11-29T08:13:07.093Z,17.50
2017-11-29T08:15:37.517Z,15.40
2017-11-29T08:18:06.334Z,20.07
2017-11-29T08:20:35.139Z,15.70
2017-11-29T08:23:03.956Z,14.47
2017-11-29T08:25:32.779Z,18.50
2017-11-29T08:28:01.581Z,17.97
2017-11-29T08:30:30.419Z,19.43
2017-11-29T08:32:59.248Z,21.50
2017-11-29T08:35:28.091Z,21.87
2017-11-29T08:37:56.913Z,21.47
2017-11-29T08:40:25.735Z,23.40
2017-11-29T08:42:53.462Z,32.93
2017-11-29T08:45:42.902Z,21.60
2017-11-29T08:48:10.379Z,18.70
2017-11-29T08:50:46.991Z,22.33
2017-11-29T08:53:14.494Z,19.50
2017-11-29T08:55:42.023Z,24.90
2017-11-29T08:58:09.483Z,22.63
2017-11-29T09:00:36.969Z,19.97
2017-11-29T09:03:04.427Z,26.20
2017-11-29T09:05:31.905Z,21.03
2017-11-29T09:08:06.524Z,22.50
2017-11-29T09:10:34.286Z,22.57
2017-11-29T09:13:01.757Z,23.63
2017-11-29T09:15:30.023Z,25.33
2017-11-29T09:17:58.272Z,22.87
2017-11-29T09:20:25.815Z,21.30
2017-11-29T09:22:53.371Z,25.30
2017-11-29T09:25:20.893Z,22.37
2017-11-29T09:27:48.373Z,25.27
2017-11-29T09:30:15.862Z,28.23
2017-11-29T09:32:43.347Z,30.27
2017-11-29T09:35:11.595Z,29.80
2017-11-29T09:37:39.085Z,25.60
2017-11-29T09:40:06.599Z,31.93
2017-11-29T09:42:34.128Z,23.50
2017-11-29T09:45:01.611Z,21.17
2017-11-29T09:47:29.131Z,26.20
2017-11-29T09:49:56.622Z,22.77
2017-11-29T09:52:24.133Z,24.30
2017-11-29T09:54:52.389Z,18.77
2017-11-29T09:57:19.866Z,16.27
2017-11-29T09:59:48.152Z,20.43
2017-11-29T10:02:16.429Z,21.10
2017-11-29T10:04:43.917Z,23.33
2017-11-29T10:07:11.438Z,19.57
2017-11-29T10:09:38.929Z,26.67
2017-11-29T10:12:06.446Z,19.70
2017-11-29T10:14:34.765Z,18.70
2017-11-29T10:17:02.508Z,15.87
2017-11-29T10:19:30.457Z,15.87
2017-11-29T10:21:58.758Z,17.63
2017-11-29T10:24:26.295Z,18.47
2017-11-29T10:26:54.586Z,16.47
2017-11-29T10:29:22.118Z,16.63
2017-11-29T10:31:49.603Z,16.20
2017-11-29T10:34:18.380Z,17.60
2017-11-29T10:36:46.716Z,19.10
2017-11-29T10:39:14.219Z,14.77
2017-11-29T10:41:42.514Z,17.10
2017-11-29T10:44:10.153Z,23.60
2017-11-29T10:46:38.405Z,16.37
2017-11-29T10:49:05.903Z,17.47
2017-11-29T10:51:33.623Z,23.00
2017-11-29T10:54:01.133Z,18.97
2017-11-29T10:56:29.294Z,15.03
2017-11-29T10:58:56.797Z,14.80
2017-11-29T11:01:24.316Z,16.40
2017-11-29T11:03:51.826Z,20.00
2017-11-29T11:06:19.407Z,17.40
2017-11-29T11:08:47.064Z,15.40
2017-11-29T11:11:14.585Z,19.57
2017-11-29T11:13:42.081Z,20.47
2017-11-29T11:16:09.594Z,16.47
2017-11-29T11:18:37.835Z,14.13
2017-11-29T11:21:06.512Z,16.30
2017-11-29T11:23:33.976Z,14.30
2017-11-29T11:26:03.167Z,9.53
2017-11-29T11:28:30.736Z,13.97
2017-11-29T11:30:58.570Z,14.17
2017-11-29T11:33:26.139Z,16.60
2017-11-29T11:35:54.563Z,14.17
2017-11-29T11:38:22.152Z,10.00
2017-11-29T11:40:49.713Z,11.37
2017-11-29T11:43:17.232Z,7.43
2017-11-29T11:45:48.336Z,15.10
2017-11-29T11:48:15.808Z,5.00
2017-11-29T11:50:43.284Z,4.83
2017-11-29T11:53:10.758Z,7.43
2017-11-29T11:55:38.247Z,6.73
2017-11-29T11:58:05.774Z,6.00
2017-11-29T12:00:33.245Z,6.50
2017-11-29T12:03:00.714Z,8.63
2017-11-29T12:05:28.199Z,11.13
2017-11-29T12:07:55.676Z,6.97
2017-11-29T12:10:23.975Z,11.70
2017-11-29T12:12:54.857Z,7.87
2017-11-29T12:15:22.584Z,10.03
2017-11-29T12:17:50.067Z,10.30
2017-11-29T12:20:17.535Z,6.97
2017-11-29T12:22:45.014Z,10.20
2017-11-29T12:25:13.240Z,9.50
2017-11-29T12:27:40.746Z,10.67
2017-11-29T12:30:09.010Z,14.70
2017-11-29T12:32:36.473Z,7.93
2017-11-29T12:35:03.967Z,7.03
2017-11-29T12:37:31.426Z,6.73
2017-11-29T12:39:58.924Z,8.77
2017-11-29T12:42:26.404Z,5.77
2017-11-29T12:44:54.641Z,6.07
2017-11-29T12:47:22.153Z,5.33
2017-11-29T12:50:01.402Z,6.80
2017-11-29T12:52:28.895Z,8.60
2017-11-29T12:54:56.368Z,4.03
2017-11-29T12:57:23.860Z,7.30
2017-11-29T12:59:51.365Z,8.37
2017-11-29T13:02:18.846Z,5.07
2017-11-29T13:04:46.348Z,7.77
2017-11-29T13:07:13.842Z,4.70
2017-11-29T13:09:41.357Z,9.97
2017-11-29T13:12:08.912Z,6.77
2017-11-29T13:14:37.149Z,6.40
2017-11-29T13:17:04.647Z,5.27
2017-11-29T13:19:32.352Z,3.90
2017-11-29T13:21:59.824Z,8.00
2017-11-29T13:24:27.308Z,7.70
2017-11-29T13:26:54.769Z,8.30
2017-11-29T13:29:23.033Z,7.87
2017-11-29T13:31:50.534Z,5.27
2017-11-29T13:34:18.066Z,6.70
2017-11-29T13:36:46.379Z,7.10
2017-11-29T13:39:13.848Z,8.50
2017-11-29T13:41:41.332Z,7.50
2017-11-29T13:44:08.851Z,4.40
2017-11-29T13:46:36.317Z,9.40
2017-11-29T13:49:03.807Z,13.47
2017-11-29T13:51:31.323Z,5.73
2017-11-29T13:53:58.892Z,7.77
2017-11-29T13:56:26.442Z,9.07
2017-11-29T13:58:53.987Z,6.80
2017-11-29T14:01:21.460Z,6.90
2017-11-29T14:03:48.921Z,5.67
2017-11-29T14:06:16.385Z,6.67
2017-11-29T14:08:43.868Z,10.57
2017-11-29T14:11:11.374Z,12.97
2017-11-29T14:13:38.872Z,13.13
2017-11-29T14:16:06.357Z,9.83
2017-11-29T14:18:34.611Z,16.03
2017-11-29T14:21:02.103Z,11.97
2017-11-29T14:23:30.336Z,21.17
2017-11-29T14:25:57.832Z,10.90
2017-11-29T14:28:26.074Z,11.33
2017-11-29T14:30:53.567Z,13.50
2017-11-29T14:33:21.816Z,14.10
2017-11-29T14:35:50.078Z,16.93
2017-11-29T14:38:17.569Z,17.30
2017-11-29T14:40:45.085Z,21.60
2017-11-29T14:43:12.564Z,18.03
2017-11-29T14:45:40.104Z,16.00
2017-11-29T14:48:07.571Z,16.77
2017-11-29T14:50:35.058Z,15.50
2017-11-29T14:53:02.558Z,12.30
2017-11-29T14:55:30.041Z,16.97
2017-11-29T14:57:57.523Z,15.70
2017-11-29T15:00:25.031Z,15.53
2017-11-29T15:02:52.528Z,13.50
2017-11-29T15:05:20.019Z,15.30
2017-11-29T15:07:51.337Z,15.47
2017-11-29T15:10:18.809Z,14.70
2017-11-29T15:12:48.810Z,17.53
2017-11-29T15:15:16.289Z,17.00
2017-11-29T15:17:44.537Z,16.13
2017-11-29T15:20:12.026Z,15.80
2017-11-29T15:22:39.538Z,14.70
2017-11-29T15:25:07.010Z,19.30
2017-11-29T15:27:34.475Z,14.13
2017-11-29T15:30:01.951Z,15.83
2017-11-29T15:32:30.417Z,15.50
2017-11-29T15:34:57.870Z,17.60
2017-11-29T15:37:25.339Z,19.70
2017-11-29T15:39:59.555Z,17.87
2017-11-29T15:42:27.840Z,19.00
2017-11-29T15:44:55.303Z,24.43
2017-11-29T15:47:22.794Z,25.27
2017-11-29T15:49:53.704Z,22.03
2017-11-29T15:52:21.173Z,22.13
2017-11-29T15:54:49.804Z,19.53
2017-11-29T15:57:19.420Z,19.67
2017-11-29T15:59:47.979Z,16.90
2017-11-29T16:02:15.517Z,19.10
2017-11-29T16:04:43.086Z,21.23
2017-11-29T16:07:10.700Z,24.23
2017-11-29T16:09:38.510Z,21.77
2017-11-29T16:12:06.819Z,22.17
2017-11-29T16:14:34.388Z,23.87
2017-11-29T16:17:02.861Z,28.20
2017-11-29T16:19:30.496Z,27.90
2017-11-29T16:21:59.146Z,30.60
2017-11-29T16:24:26.858Z,25.23
2017-11-29T16:26:54.460Z,23.20
2017-11-29T16:29:22.818Z,23.27
2017-11-29T16:31:51.460Z,21.20
2017-11-29T16:34:19.216Z,21.30
2017-11-29T16:36:47.224Z,20.37
2017-11-29T16:39:14.987Z,19.57
2017-11-29T16:41:42.643Z,22.67
2017-11-29T16:44:10.267Z,28.40
2017-11-29T16:46:38.009Z,25.30
2017-11-29T16:49:05.561Z,24.57
2017-11-29T16:51:34.217Z,26.70
2017-11-29T16:54:01.878Z,23.07
2017-11-29T16:56:29.530Z,30.60
2017-11-29T16:58:57.152Z,30.80
2017-11-29T17:01:24.862Z,29.57
2017-11-29T17:03:52.414Z,25.73
2017-11-29T17:06:20.065Z,22.57
2017-11-29T17:08:47.688Z,28.07
2017-11-29T17:11:15.418Z,22.10
2017-11-29T17:13:43.955Z,25.40
2017-11-29T17:16:11.662Z,30.00
2017-11-29T17:18:40.030Z,27.83
2017-11-29T17:21:08.490Z,27.87
2017-11-29T17:23:36.893Z,31.47
2017-11-29T17:26:05.593Z,25.30
2017-11-29T17:28:33.371Z,26.73
2017-11-29T17:31:03.086Z,31.43
2017-11-29T17:33:30.767Z,25.47
2017-11-29T17:35:58.438Z,29.60
2017-11-29T17:38:28.390Z,26.60
2017-11-29T17:40:56.028Z,26.23
2017-11-29T17:43:24.020Z,35.80
2017-11-29T17:45:51.718Z,26.10
2017-11-29T17:48:19.558Z,28.60
2017-11-29T17:50:47.092Z,27.77
2017-11-29T17:53:14.610Z,26.00
2017-11-29T17:55:42.133Z,28.97
2017-11-29T17:58:09.625Z,30.67
2017-11-29T18:00:38.083Z,28.37
2017-11-29T18:03:05.743Z,29.17
2017-11-29T18:05:33.283Z,36.10
2017-11-29T18:08:00.808Z,40.20
2017-11-29T18:10:28.327Z,29.83
2017-11-29T18:12:56.595Z,27.00
2017-11-29T18:15:24.231Z,27.67
2017-11-29T18:17:52.136Z,39.47
2017-11-29T18:20:19.649Z,31.53
2017-11-29T18:22:47.174Z,32.53
2017-11-29T18:25:14.965Z,26.30
2017-11-29T18:27:42.470Z,34.50
2017-11-29T18:30:10.780Z,38.43
2017-11-29T18:32:38.276Z,30.80
2017-11-29T18:35:05.771Z,31.70
2017-11-29T18:37:34.041Z,33.20
2017-11-29T18:40:02.290Z,32.77
2017-11-29T18:42:29.796Z,42.63
2017-11-29T18:44:57.309Z,29.40
2017-11-29T18:47:24.819Z,34.03
2017-11-29T18:49:52.334Z,40.30
2017-11-29T18:52:20.624Z,35.23
2017-11-29T18:54:48.153Z,34.50
2017-11-29T18:57:15.656Z,36.73
2017-11-29T18:59:43.188Z,34.47
2017-11-29T19:02:10.683Z,33.07
2017-11-29T19:04:38.194Z,32.17
2017-11-29T19:07:05.712Z,35.13
2017-11-29T19:09:33.219Z,32.20
2017-11-29T19:12:00.722Z,31.10
2017-11-29T19:14:28.215Z,29.13
2017-11-29T19:16:55.756Z,33.67
2017-11-29T19:19:23.263Z,32.37
2017-11-29T19:21:50.750Z,36.03
2017-11-29T19:24:18.249Z,26.03
2017-11-29T19:26:45.765Z,31.30
2017-11-29T19:29:13.271Z,38.50
2017-11-29T19:31:40.777Z,34.07
2017-11-29T19:34:08.311Z,34.17
2017-11-29T19:36:36.575Z,35.90
2017-11-29T19:39:04.073Z,37.73
2017-11-29T19:41:31.638Z,31.20
2017-11-29T19:43:59.198Z,39.20
2017-11-29T19:46:26.748Z,33.27
2017-11-29T19:48:54.236Z,29.33
2017-11-29T19:51:21.747Z,28.10
2017-11-29T19:53:50.035Z,34.10
2017-11-29T19:56:17.576Z,29.63
2017-11-29T19:58:45.134Z,29.43
2017-11-29T20:01:13.418Z,28.97
2017-11-29T20:03:42.066Z,30.93
2017-11-29T20:06:09.582Z,30.73
2017-11-29T20:08:37.138Z,33.50
2017-11-29T20:11:04.627Z,33.37
2017-11-29T20:13:32.149Z,30.33
2017-11-29T20:15:59.652Z,28.93
2017-11-29T20:18:27.152Z,34.37
2017-11-29T20:20:54.680Z,32.23
2017-11-29T20:23:22.167Z,29.47
2017-11-29T20:25:49.667Z,31.57
2017-11-29T20:28:17.198Z,35.83
2017-11-29T20:30:44.702Z,34.47
2017-11-29T20:33:12.230Z,35.10
2017-11-29T20:35:39.739Z,25.63
2017-11-29T20:38:07.262Z,31.83
2017-11-29T20:40:34.771Z,31.60
2017-11-29T20:43:02.283Z,31.00
2017-11-29T20:45:29.777Z,26.50
2017-11-29T20:47:57.302Z,30.00
2017-11-29T20:50:24.788Z,29.70
2017-11-29T20:52:55.159Z,31.13
2017-11-29T20:55:22.656Z,29.27
2017-11-29T20:57:50.153Z,29.00
2017-11-29T21:00:17.653Z,35.40
2017-11-29T21:02:45.145Z,29.87
2017-11-29T21:05:12.661Z,35.60
2017-11-29T21:07:40.165Z,32.53
2017-11-29T21:10:08.434Z,31.43
2017-11-29T21:12:36.156Z,34.93
2017-11-29T21:15:03.638Z,33.20
2017-11-29T21:17:31.171Z,29.70
2017-11-29T21:19:58.646Z,33.50
2017-11-29T21:22:26.162Z,29.40
2017-11-29T21:24:53.671Z,31.20
2017-11-29T21:27:21.166Z,30.17
2017-11-29T21:29:48.813Z,34.10
2017-11-29T21:32:16.334Z,32.67
2017-11-29T21:34:43.836Z,49.50
2017-11-29T21:37:12.360Z,33.67
2017-11-29T21:39:39.841Z,29.53
2017-11-29T21:42:07.347Z,29.13
2017-11-29T21:44:35.599Z,30.77
2017-11-29T21:47:03.114Z,31.30
2017-11-29T21:49:30.625Z,30.80
2017-11-29T21:51:58.120Z,30.30
2017-11-29T21:54:25.649Z,34.93
2017-11-29T21:56:53.908Z,36.20
2017-11-29T21:59:21.377Z,30.53
2017-11-29T22:01:48.886Z,32.47
2017-11-29T22:04:16.380Z,31.87
2017-11-29T22:06:43.879Z,27.50
2017-11-29T22:09:11.385Z,33.27
2017-11-29T22:11:38.893Z,32.03
2017-11-29T22:14:06.412Z,35.37
2017-11-29T22:16:33.899Z,35.90
2017-11-29T22:19:01.398Z,38.33
2017-11-29T22:21:28.922Z,37.93
2017-11-29T22:23:56.438Z,32.27
2017-11-29T22:26:23.908Z,27.47
2017-11-29T22:28:51.420Z,30.90
2017-11-29T22:31:18.920Z,29.23
2017-11-29T22:33:46.395Z,29.80
2017-11-29T22:36:13.904Z,30.60
2017-11-29T22:38:41.414Z,30.57
2017-11-29T22:41:08.942Z,31.77
2017-11-29T22:43:36.448Z,34.30
2017-11-29T22:46:03.976Z,32.17
2017-11-29T22:48:31.470Z,29.63
2017-11-29T22:50:58.967Z,32.70
2017-11-29T22:53:26.438Z,32.40
2017-11-29T22:55:53.947Z,34.80
2017-11-29T22:58:21.427Z,29.90
2017-11-29T23:00:49.215Z,34.67
2017-11-29T23:03:16.711Z,36.30
2017-11-29T23:05:44.176Z,33.83
2017-11-29T23:08:11.736Z,40.33
2017-11-29T23:10:39.244Z,33.50
2017-11-29T23:13:06.733Z,28.20
2017-11-29T23:15:35.008Z,37.63
2017-11-29T23:18:03.266Z,31.03
2017-11-29T23:20:30.794Z,28.83
2017-11-29T23:22:58.281Z,27.30
2017-11-29T23:25:25.769Z,25.80
2017-11-29T23:27:53.278Z,27.13
2017-11-29T23:30:20.774Z,27.13
2017-11-29T23:32:49.028Z,25.20
2017-11-29T23:35:16.506Z,25.47
2017-11-29T23:37:44.022Z,26.90
2017-11-29T23:40:11.539Z,29.67
2017-11-29T23:42:39.029Z,30.20
2017-11-29T23:45:06.798Z,31.67
2017-11-29T23:47:34.377Z,34.00
2017-11-29T23:50:01.852Z,34.67
2017-11-29T23:52:29.359Z,33.70
2017-11-29T23:54:56.847Z,34.17
2017-11-29T23:57:24.333Z,36.53
2017-11-29T23:59:52.583Z,40.40
